Time;durP1;ratioP1;P1;durP2;ratioP2;P2;SDS_P1;SDS_P2;PMS_P1;PMS_P2;Temp;Humidity;BMP_temperature;BMP_pressure;BME280_temperature;BME280_humidity;BME280_pressure;Samples;Min_cycle;Max_cycle;Signal;HPM_P1;HPM_P2
2021/01/03 00:00:24;;;;;;;2.33;2.17;;;7.20;99.90;;;;;;5016942;28;20208;-79
2021/01/03 00:02:50;;;;;;;11.65;5.85;;;7.30;99.90;;;;;;5034678;28;20156;-79
2021/01/03 00:05:19;;;;;;;10.95;3.58;;;7.40;99.90;;;;;;5034660;28;20195;-78
2021/01/03 00:07:45;;;;;;;4.75;2.25;;;7.60;99.90;;;;;;5016833;28;20164;-79
2021/01/03 00:10:11;;;;;;;7.47;2.15;;;7.80;99.90;;;;;;5034733;28;20183;-79
2021/01/03 00:12:37;;;;;;;1.98;1.88;;;7.80;99.90;;;;;;5034575;28;20271;-79
2021/01/03 00:15:08;;;;;;;3.13;2.60;;;7.70;99.90;;;;;;5034335;28;20227;-79
2021/01/03 00:17:33;;;;;;;12.15;3.83;;;7.70;99.90;;;;;;5016662;28;20164;-78
2021/01/03 00:19:59;;;;;;;17.83;3.85;;;7.70;99.90;;;;;;5016643;28;20202;-78
2021/01/03 00:22:25;;;;;;;3.55;3.10;;;7.60;99.90;;;;;;5034445;28;20239;-78
2021/01/03 00:24:50;;;;;;;3.30;3.03;;;7.40;99.90;;;;;;5016562;28;20206;-79
2021/01/03 00:27:16;;;;;;;4.50;3.10;;;7.40;99.90;;;;;;5034248;28;20157;-78
2021/01/03 00:29:41;;;;;;;4.55;3.60;;;7.10;99.90;;;;;;5034258;28;20530;-78
2021/01/03 00:32:07;;;;;;;8.38;2.13;;;6.80;99.90;;;;;;5016458;28;20164;-78
2021/01/03 00:34:33;;;;;;;1.77;1.67;;;6.80;99.90;;;;;;5034070;28;20198;-78
2021/01/03 00:36:59;;;;;;;7.10;4.18;;;6.60;99.90;;;;;;5034106;28;20167;-78
2021/01/03 00:39:25;;;;;;;2.67;2.47;;;6.70;99.90;;;;;;5033758;28;20295;-79
2021/01/03 00:41:51;;;;;;;2.38;1.55;;;7.00;99.90;;;;;;5016318;28;20211;-79
2021/01/03 00:44:17;;;;;;;1.80;1.70;;;7.20;99.90;;;;;;5033792;28;20183;-78
2021/01/03 00:46:43;;;;;;;3.42;1.80;;;7.30;99.90;;;;;;5033904;28;20167;-78
2021/01/03 00:49:08;;;;;;;4.60;4.22;;;7.40;99.90;;;;;;5034006;28;20183;-78
2021/01/03 00:51:34;;;;;;;9.07;3.58;;;7.40;99.90;;;;;;5033788;28;20160;-78
2021/01/03 00:53:59;;;;;;;2.72;2.45;;;7.40;99.90;;;;;;5033817;28;20168;-79
2021/01/03 00:56:25;;;;;;;10.02;3.13;;;7.50;99.90;;;;;;5033513;28;20164;-79
2021/01/03 00:58:51;;;;;;;1.75;1.65;;;7.50;99.90;;;;;;5015882;28;20180;-78
2021/01/03 01:01:18;;;;;;;2.20;2.08;;;7.00;99.90;;;;;;5033617;28;20196;-78
2021/01/03 01:03:43;;;;;;;2.92;2.70;;;7.00;99.90;;;;;;5033611;28;20222;-78
2021/01/03 01:06:09;;;;;;;9.02;1.85;;;6.90;99.90;;;;;;5032967;28;20670;-79
2021/01/03 01:08:35;;;;;;;6.22;3.28;;;6.70;99.90;;;;;;5033469;28;20168;-78
2021/01/03 01:11:03;;;;;;;2.38;2.03;;;6.60;99.90;;;;;;5033388;28;20164;-78
2021/01/03 01:13:29;;;;;;;1.48;1.38;;;6.50;99.90;;;;;;5033354;28;20183;-78
2021/01/03 01:15:55;;;;;;;3.22;2.97;;;6.80;99.90;;;;;;5033324;28;20192;-78
2021/01/03 01:18:20;;;;;;;4.03;1.38;;;6.90;99.90;;;;;;5015779;28;20257;-78
2021/01/03 01:20:46;;;;;;;3.65;3.35;;;7.10;99.90;;;;;;5033344;28;20200;-78
2021/01/03 01:23:12;;;;;;;17.38;4.63;;;7.20;99.90;;;;;;5015603;28;20175;-78
2021/01/03 01:25:37;;;;;;;2.20;1.98;;;7.10;99.90;;;;;;5033406;28;20191;-78
2021/01/03 01:28:03;;;;;;;2.40;2.30;;;7.10;99.90;;;;;;5033183;28;20172;-79
2021/01/03 01:30:32;;;;;;;1.83;1.73;;;7.10;99.90;;;;;;5015519;28;20183;-78
2021/01/03 01:32:58;;;;;;;2.08;1.92;;;7.30;99.90;;;;;;5033233;28;20616;-78
2021/01/03 01:35:28;;;;;;;3.97;3.78;;;7.40;99.90;;;;;;5015381;28;20576;-78
2021/01/03 01:37:53;;;;;;;3.97;3.60;;;7.30;99.90;;;;;;5033195;28;20164;-78
2021/01/03 01:40:22;;;;;;;5.78;2.55;;;7.20;99.90;;;;;;5032792;28;20223;-76
2021/01/03 01:42:48;;;;;;;2.58;2.35;;;6.90;99.90;;;;;;5033127;28;20578;-76
2021/01/03 01:45:18;;;;;;;2.05;1.63;;;6.70;99.90;;;;;;5033017;28;20218;-76
2021/01/03 01:47:48;;;;;;;6.10;3.17;;;6.60;99.90;;;;;;5033054;28;20172;-77
2021/01/03 01:50:19;;;;;;;3.92;2.33;;;6.70;99.90;;;;;;5033088;28;20166;-76
2021/01/03 01:52:48;;;;;;;7.20;3.45;;;6.70;99.90;;;;;;5015152;28;20166;-76
2021/01/03 01:55:19;;;;;;;4.93;2.88;;;6.70;99.90;;;;;;5033056;28;20192;-77
2021/01/03 01:57:56;;;;;;;2.13;2.03;;;6.80;99.90;;;;;;5015120;28;20536;-76
2021/01/03 02:00:28;;;;;;;6.75;1.63;;;6.60;99.90;;;;;;5032923;28;20206;-76
2021/01/03 02:03:19;;;;;;;2.88;2.65;;;6.50;99.90;;;;;;5032830;28;20199;-76
2021/01/03 02:06:05;;;;;;;2.90;1.90;;;6.50;99.90;;;;;;5014997;28;20667;-78
2021/01/03 02:08:39;;;;;;;3.10;2.72;;;6.40;99.90;;;;;;5032845;28;20254;-78
2021/01/03 02:11:12;;;;;;;4.18;3.13;;;6.30;99.90;;;;;;5015085;28;20168;-78
2021/01/03 02:13:42;;;;;;;2.00;1.90;;;6.30;99.90;;;;;;5015098;28;20167;-78
2021/01/03 02:16:14;;;;;;;5.57;3.13;;;6.50;99.90;;;;;;5032602;28;20187;-78
2021/01/03 02:18:40;;;;;;;1.30;1.30;;;6.10;99.90;;;;;;5036281;28;20508;-78
2021/01/03 02:21:14;;;;;;;6.32;2.25;;;6.20;99.90;;;;;;5036459;28;20622;-78
2021/01/03 02:24:16;;;;;;;4.22;3.90;;;6.10;99.90;;;;;;5036666;28;20225;-78
2021/01/03 02:26:47;;;;;;;5.70;2.00;;;6.20;99.90;;;;;;5036641;28;20197;-78
2021/01/03 02:29:15;;;;;;;2.30;1.75;;;6.10;99.90;;;;;;5036524;28;20689;-78
2021/01/03 02:31:53;;;;;;;1.38;1.30;;;6.00;99.90;;;;;;5036455;28;20246;-78
2021/01/03 02:34:46;;;;;;;2.08;1.67;;;6.00;99.90;;;;;;5036340;28;20221;-78
2021/01/03 02:37:24;;;;;;;3.40;1.17;;;6.10;99.90;;;;;;5018582;28;20168;-78
2021/01/03 02:40:00;;;;;;;5.80;4.20;;;6.10;99.90;;;;;;5035999;28;20227;-78
2021/01/03 02:42:35;;;;;;;8.40;2.55;;;6.10;99.90;;;;;;5036239;28;20616;-77
2021/01/03 02:45:10;;;;;;;4.35;2.17;;;6.10;99.90;;;;;;5036187;28;20218;-78
2021/01/03 02:47:37;;;;;;;3.45;3.17;;;6.00;99.90;;;;;;5036156;28;20159;-77
2021/01/03 02:50:07;;;;;;;21.38;4.15;;;6.10;99.90;;;;;;5036099;28;20563;-78
2021/01/03 02:52:36;;;;;;;23.58;3.10;;;6.10;99.90;;;;;;5036024;28;20620;-78
2021/01/03 02:55:03;;;;;;;2.85;2.55;;;6.00;99.90;;;;;;5036077;28;20179;-78
2021/01/03 02:57:28;;;;;;;6.57;3.85;;;5.90;99.90;;;;;;5035962;28;20172;-78
2021/01/03 02:59:54;;;;;;;6.25;3.08;;;5.80;99.90;;;;;;5035799;28;20225;-78
2021/01/03 03:02:19;;;;;;;8.18;3.65;;;6.00;99.90;;;;;;5035974;28;20202;-78
2021/01/03 03:04:46;;;;;;;4.97;3.88;;;6.20;99.90;;;;;;5017836;28;20180;-78
2021/01/03 03:07:12;;;;;;;2.67;2.28;;;6.40;99.90;;;;;;5035801;28;20164;-78
2021/01/03 03:09:38;;;;;;;5.07;3.47;;;6.50;99.90;;;;;;5035991;28;20600;-78
2021/01/03 03:12:03;;;;;;;3.60;2.80;;;6.50;99.90;;;;;;5035702;28;20179;-78
2021/01/03 03:14:29;;;;;;;4.78;3.10;;;6.40;99.90;;;;;;5035575;28;20191;-78
2021/01/03 03:17:00;;;;;;;12.15;3.60;;;6.30;99.90;;;;;;5035556;28;20172;-78
2021/01/03 03:19:26;;;;;;;9.18;7.18;;;6.30;99.90;;;;;;5035561;28;20160;-78
2021/01/03 03:21:52;;;;;;;4.80;4.50;;;6.50;99.90;;;;;;5017721;28;20219;-78
2021/01/03 03:24:18;;;;;;;4.25;3.13;;;6.40;99.90;;;;;;5035453;28;20750;-78
2021/01/03 03:26:55;;;;;;;3.35;3.05;;;6.00;99.90;;;;;;5035334;28;20643;-78
2021/01/03 03:29:22;;;;;;;7.35;3.47;;;6.00;99.90;;;;;;5017023;28;20694;-78
2021/01/03 03:31:48;;;;;;;4.38;3.88;;;5.90;99.90;;;;;;5035450;28;20156;-78
2021/01/03 03:34:14;;;;;;;5.13;2.95;;;6.00;99.90;;;;;;5035179;28;20196;-78
2021/01/03 03:36:40;;;;;;;6.40;2.65;;;5.70;99.90;;;;;;5035298;28;20165;-78
2021/01/03 03:39:05;;;;;;;9.30;2.38;;;5.80;99.90;;;;;;5035113;28;20216;-78
2021/01/03 03:41:31;;;;;;;8.80;3.60;;;5.60;99.90;;;;;;5035198;28;20295;-79
2021/01/03 03:43:57;;;;;;;3.25;2.95;;;5.70;99.90;;;;;;5034947;28;20271;-78
2021/01/03 03:46:22;;;;;;;2.33;2.22;;;5.80;99.90;;;;;;5035026;28;20175;-78
2021/01/03 03:51:22;;;;;;;6.03;3.53;;;5.80;99.90;;;;;;5014059;28;20212;-77
2021/01/03 03:53:48;;;;;;;11.98;4.05;;;5.90;99.90;;;;;;5015322;28;20160;-77
2021/01/03 03:56:15;;;;;;;3.42;3.05;;;5.60;99.90;;;;;;5015117;28;20558;-77
2021/01/03 03:58:41;;;;;;;7.20;3.38;;;5.70;99.90;;;;;;5015209;28;20165;-77
2021/01/03 04:01:08;;;;;;;4.10;2.03;;;5.90;99.90;;;;;;5014983;28;20682;-78
2021/01/03 04:03:33;;;;;;;9.02;3.58;;;5.90;99.90;;;;;;5015063;28;20654;-77
2021/01/03 04:06:00;;;;;;;17.25;2.80;;;5.90;99.90;;;;;;5015086;28;20188;-79
2021/01/03 04:08:26;;;;;;;2.28;1.40;;;5.70;99.90;;;;;;5015014;28;20200;-79
2021/01/03 04:10:51;;;;;;;10.07;5.85;;;5.70;99.90;;;;;;5014966;28;20648;-78
2021/01/03 04:13:17;;;;;;;1.45;1.40;;;6.00;99.90;;;;;;5014892;28;20164;-77
2021/01/03 04:15:43;;;;;;;2.40;2.13;;;6.20;99.90;;;;;;5014910;28;20291;-78
2021/01/03 04:18:09;;;;;;;7.55;4.35;;;6.20;99.90;;;;;;5014821;28;20171;-76
2021/01/03 04:20:35;;;;;;;2.88;2.65;;;6.20;99.90;;;;;;5014810;28;20230;-78
2021/01/03 04:23:01;;;;;;;4.85;2.95;;;6.00;99.90;;;;;;5014852;28;20617;-78
2021/01/03 04:25:26;;;;;;;3.22;3.03;;;6.10;99.90;;;;;;5015078;28;20196;-76
2021/01/03 04:27:53;;;;;;;7.45;2.65;;;5.90;99.90;;;;;;5015228;28;20620;-78
2021/01/03 04:30:21;;;;;;;4.55;3.10;;;5.90;99.90;;;;;;5014956;28;20200;-78
2021/01/03 04:32:47;;;;;;;3.60;2.22;;;5.70;99.90;;;;;;5014591;28;20153;-77
2021/01/03 04:35:13;;;;;;;2.92;2.72;;;5.80;99.90;;;;;;4996907;28;20526;-79
2021/01/03 04:37:39;;;;;;;1.65;1.60;;;6.00;99.90;;;;;;5014503;28;20646;-77
2021/01/03 04:40:08;;;;;;;17.48;2.72;;;5.80;99.90;;;;;;5013872;28;20161;-77
2021/01/03 04:42:35;;;;;;;3.17;2.97;;;5.90;99.90;;;;;;5013940;28;20191;-77
2021/01/03 04:45:40;;;;;;;3.80;2.65;;;6.00;99.90;;;;;;5014192;28;20177;-77
2021/01/03 04:48:16;;;;;;;3.13;1.48;;;6.10;99.90;;;;;;5012355;28;20199;-75
2021/01/03 04:50:58;;;;;;;16.25;3.30;;;6.00;99.90;;;;;;5014085;28;20235;-77
2021/01/03 04:54:01;;;;;;;3.90;3.25;;;6.10;99.90;;;;;;5014205;28;20169;-78
2021/01/03 04:56:30;;;;;;;6.97;3.05;;;6.00;99.90;;;;;;5013693;28;20168;-78
2021/01/03 04:59:12;;;;;;;3.05;2.75;;;6.00;99.90;;;;;;5014051;28;20525;-77
2021/01/03 05:01:40;;;;;;;2.42;1.60;;;6.00;99.90;;;;;;5013781;28;20192;-75
2021/01/03 05:04:43;;;;;;;5.00;3.08;;;6.00;99.90;;;;;;5013796;28;20169;-76
2021/01/03 05:07:14;;;;;;;2.20;1.67;;;5.80;99.90;;;;;;5013875;28;20164;-75
2021/01/03 05:09:40;;;;;;;1.30;1.30;;;5.70;99.90;;;;;;5013987;28;20168;-75
2021/01/03 05:12:14;;;;;;;3.03;2.67;;;5.90;99.90;;;;;;4996236;28;20193;-77
2021/01/03 05:14:48;;;;;;;16.88;3.63;;;5.90;99.90;;;;;;5013683;28;20576;-76
2021/01/03 05:17:14;;;;;;;3.55;2.35;;;5.50;99.90;;;;;;5013916;28;20169;-76
2021/01/03 05:19:40;;;;;;;4.20;3.28;;;5.40;99.90;;;;;;5013618;28;20598;-78
2021/01/03 05:22:06;;;;;;;1.80;1.67;;;5.40;99.90;;;;;;4996100;28;20196;-76
2021/01/03 05:24:44;;;;;;;10.70;5.13;;;5.50;99.90;;;;;;5013545;28;20188;-76
2021/01/03 05:27:16;;;;;;;6.97;3.55;;;5.70;99.90;;;;;;5013640;28;20251;-78
2021/01/03 05:29:43;;;;;;;6.93;2.42;;;5.70;99.90;;;;;;4995991;28;20175;-77
2021/01/03 05:32:10;;;;;;;1.92;1.80;;;6.00;99.90;;;;;;5023504;28;20163;-76
2021/01/03 05:34:42;;;;;;;6.03;4.47;;;5.80;99.90;;;;;;5037703;28;20187;-79
2021/01/03 05:37:31;;;;;;;5.88;3.95;;;5.70;99.90;;;;;;5033753;28;20169;-76
2021/01/03 05:39:56;;;;;;;0.80;0.80;;;5.70;99.90;;;;;;5016855;28;20167;-75
2021/01/03 05:42:31;;;;;;;2.67;2.47;;;5.50;99.90;;;;;;5013745;28;20165;-78
2021/01/03 05:45:22;;;;;;;4.03;3.75;;;5.40;99.90;;;;;;5013174;28;20184;-77
2021/01/03 05:47:57;;;;;;;2.17;1.08;;;5.20;99.90;;;;;;5013332;28;20183;-76
2021/01/03 05:50:35;;;;;;;8.90;3.92;;;5.20;99.90;;;;;;5013024;28;20616;-77
2021/01/03 05:53:08;;;;;;;5.55;2.50;;;5.20;99.90;;;;;;5012863;28;20163;-76
2021/01/03 05:55:36;;;;;;;2.08;1.92;;;5.20;99.90;;;;;;5013231;28;20319;-78
2021/01/03 05:58:10;;;;;;;7.45;2.15;;;5.30;99.90;;;;;;5013195;28;20628;-77
2021/01/03 06:00:37;;;;;;;3.10;2.33;;;5.40;99.90;;;;;;5013179;28;20203;-76
2021/01/03 06:03:30;;;;;;;4.05;1.27;;;5.40;99.90;;;;;;5013190;28;20169;-77
2021/01/03 06:06:08;;;;;;;1.10;0.90;;;5.40;99.90;;;;;;5013051;28;20196;-76
2021/01/03 06:08:38;;;;;;;2.13;2.03;;;5.40;99.90;;;;;;5013104;28;20620;-77
2021/01/03 06:11:18;;;;;;;0.85;0.85;;;5.60;99.90;;;;;;5013143;28;20164;-78
2021/01/03 06:13:57;;;;;;;1.58;1.50;;;5.60;99.90;;;;;;5013346;28;20251;-77
2021/01/03 06:16:31;;;;;;;12.10;4.57;;;5.70;99.90;;;;;;5013110;28;20635;-74
2021/01/03 06:19:11;;;;;;;2.78;2.35;;;5.50;99.90;;;;;;5013055;28;20173;-76
2021/01/03 06:21:40;;;;;;;3.85;1.98;;;5.50;99.90;;;;;;5012956;28;20200;-77
2021/01/03 06:24:26;;;;;;;3.45;2.75;;;5.40;99.90;;;;;;5012903;28;20247;-75
2021/01/03 06:26:56;;;;;;;29.70;3.65;;;5.40;99.90;;;;;;5012957;28;20505;-75
2021/01/03 06:29:48;;;;;;;2.20;2.10;;;5.30;99.90;;;;;;5013063;28;20192;-75
2021/01/03 06:32:20;;;;;;;2.30;2.17;;;5.20;99.90;;;;;;5012996;28;20153;-77
2021/01/03 06:34:58;;;;;;;12.65;3.45;;;5.20;99.90;;;;;;4995129;28;20640;-76
2021/01/03 06:37:33;;;;;;;2.42;2.33;;;5.40;99.90;;;;;;5012846;28;20165;-77
2021/01/03 06:39:59;;;;;;;1.40;1.30;;;5.40;99.90;;;;;;5012696;28;20172;-77
2021/01/03 06:42:51;;;;;;;4.53;4.18;;;5.20;99.90;;;;;;5013081;28;20187;-77
2021/01/03 06:45:54;;;;;;;2.35;2.25;;;5.30;99.90;;;;;;5012934;28;20311;-77
2021/01/03 06:48:41;;;;;;;0.88;0.88;;;5.40;99.90;;;;;;5012908;28;20230;-76
2021/01/03 06:51:31;;;;;;;1.05;1.05;;;5.40;99.90;;;;;;5012539;28;20244;-77
2021/01/03 06:54:15;;;;;;;2.78;2.45;;;5.50;99.90;;;;;;5012793;28;20177;-77
2021/01/03 06:57:13;;;;;;;6.38;3.38;;;5.40;99.90;;;;;;4995200;28;20239;-75
2021/01/03 07:00:07;;;;;;;2.00;1.20;;;5.40;99.90;;;;;;4995050;28;20192;-77
2021/01/03 07:02:39;;;;;;;8.40;4.47;;;5.40;99.90;;;;;;5013038;28;20613;-79
2021/01/03 07:05:10;;;;;;;3.13;1.55;;;5.40;99.90;;;;;;4998375;28;20204;-75
2021/01/03 07:07:38;;;;;;;12.90;4.65;;;5.50;99.90;;;;;;5017928;28;20219;-78
2021/01/03 07:10:08;;;;;;;3.70;3.35;;;5.60;99.90;;;;;;5017291;28;20619;-78
2021/01/03 07:12:43;;;;;;;10.00;4.57;;;5.60;99.90;;;;;;5016885;28;20156;-78
2021/01/03 07:15:29;;;;;;;1.25;1.25;;;5.50;99.90;;;;;;4998669;28;20192;-76
2021/01/03 07:17:55;;;;;;;5.68;4.20;;;5.60;99.90;;;;;;5002534;28;20273;-79
2021/01/03 07:20:47;;;;;;;8.48;3.40;;;5.70;99.90;;;;;;5016677;28;20602;-78
2021/01/03 07:23:18;;;;;;;1.92;1.75;;;6.00;99.90;;;;;;5015930;28;20192;-75
2021/01/03 07:25:51;;;;;;;8.93;4.93;;;6.10;99.90;;;;;;5016406;28;20542;-74
2021/01/03 07:28:22;;;;;;;16.35;5.13;;;6.10;99.90;;;;;;5016894;28;20172;-75
2021/01/03 07:31:32;;;;;;;4.18;2.38;;;6.00;99.90;;;;;;5017074;28;20536;-75
2021/01/03 07:34:01;;;;;;;5.35;3.25;;;6.00;99.90;;;;;;4997062;28;20183;-79
2021/01/03 07:36:41;;;;;;;2.35;1.70;;;5.90;99.90;;;;;;5016097;28;20165;-77
2021/01/03 07:39:25;;;;;;;2.47;2.38;;;5.80;99.90;;;;;;5019838;28;20164;-76
2021/01/03 07:42:12;;;;;;;7.03;4.35;;;5.80;99.90;;;;;;5019186;28;20204;-75
2021/01/03 07:44:38;;;;;;;3.33;2.72;;;5.90;99.90;;;;;;5018578;28;20542;-78
2021/01/03 07:47:04;;;;;;;2.35;2.25;;;5.90;99.90;;;;;;5021426;28;20173;-75
2021/01/03 07:49:46;;;;;;;3.42;3.15;;;5.80;99.90;;;;;;5020527;28;20223;-74
2021/01/03 07:52:19;;;;;;;8.27;2.58;;;5.60;99.90;;;;;;5019042;28;20207;-85
2021/01/03 07:54:49;;;;;;;2.05;1.98;;;5.50;99.90;;;;;;5022691;28;20223;-79
2021/01/03 07:57:15;;;;;;;4.32;3.60;;;5.50;99.90;;;;;;5020155;28;20172;-75
2021/01/03 07:59:41;;;;;;;1.20;1.20;;;5.70;99.90;;;;;;5015976;28;20164;-76
2021/01/03 08:02:08;;;;;;;6.63;2.75;;;5.70;99.90;;;;;;5015280;28;20201;-76
2021/01/03 08:04:33;;;;;;;12.20;4.25;;;5.90;99.90;;;;;;5017624;28;20215;-78
2021/01/03 08:07:07;;;;;;;2.83;1.88;;;5.80;99.90;;;;;;5028379;28;20180;-77
2021/01/03 08:09:33;;;;;;;2.35;2.15;;;5.80;99.90;;;;;;5038163;28;20549;-76
2021/01/03 08:12:22;;;;;;;3.65;2.53;;;5.80;99.90;;;;;;5027486;28;20165;-76
2021/01/03 08:14:52;;;;;;;6.75;3.58;;;5.80;99.90;;;;;;5012262;28;20195;-78
2021/01/03 08:17:23;;;;;;;4.57;3.72;;;5.90;99.90;;;;;;5013316;28;20175;-77
2021/01/03 08:19:50;;;;;;;8.88;5.03;;;6.00;99.90;;;;;;5014648;28;20172;-77
2021/01/03 08:22:25;;;;;;;1.45;1.45;;;6.00;99.90;;;;;;5014025;28;20207;-75
2021/01/03 08:24:56;;;;;;;11.55;4.88;;;6.20;99.90;;;;;;5014604;28;20219;-84
2021/01/03 08:27:41;;;;;;;5.40;3.50;;;6.30;99.90;;;;;;4997457;28;20180;-77
2021/01/03 08:30:16;;;;;;;2.92;2.55;;;6.10;99.90;;;;;;4997221;28;20172;-77
2021/01/03 08:32:42;;;;;;;8.75;3.55;;;5.90;99.90;;;;;;5015011;28;20170;-76
2021/01/03 08:35:25;;;;;;;5.78;3.13;;;5.80;99.90;;;;;;5014176;28;20648;-77
2021/01/03 08:37:50;;;;;;;4.43;3.63;;;5.50;99.90;;;;;;5014227;28;20168;-76
2021/01/03 08:40:27;;;;;;;8.30;5.38;;;5.70;99.90;;;;;;5013910;28;20174;-75
2021/01/03 08:43:23;;;;;;;6.43;4.35;;;5.60;99.90;;;;;;5013909;28;20573;-79
2021/01/03 08:45:50;;;;;;;3.05;2.78;;;5.40;99.90;;;;;;5011261;28;20208;-78
2021/01/03 08:48:24;;;;;;;2.03;1.92;;;5.40;99.90;;;;;;5014172;28;20168;-77
2021/01/03 08:51:10;;;;;;;2.30;2.10;;;5.60;99.90;;;;;;5014032;28;20643;-78
2021/01/03 08:53:36;;;;;;;9.45;3.85;;;5.90;99.90;;;;;;5014229;28;20166;-78
2021/01/03 08:56:27;;;;;;;12.48;3.80;;;6.00;99.90;;;;;;5014013;28;20184;-77
2021/01/03 08:58:53;;;;;;;13.45;4.10;;;6.30;99.90;;;;;;5012757;28;20218;-80
2021/01/03 09:01:32;;;;;;;7.20;2.85;;;6.30;99.90;;;;;;5014010;28;20196;-79
2021/01/03 09:04:01;;;;;;;8.10;2.33;;;6.10;99.90;;;;;;5014017;28;20655;-77
2021/01/03 09:06:29;;;;;;;12.00;3.47;;;5.80;99.90;;;;;;5013846;28;20288;-78
2021/01/03 09:08:55;;;;;;;16.52;3.40;;;5.90;99.90;;;;;;5014082;28;20167;-76
2021/01/03 09:11:31;;;;;;;8.88;3.95;;;5.80;99.90;;;;;;5013692;28;20176;-77
2021/01/03 09:14:12;;;;;;;2.38;2.22;;;5.80;99.90;;;;;;5013609;28;20231;-78
2021/01/03 09:17:07;;;;;;;14.05;4.03;;;5.90;99.90;;;;;;5013667;28;20175;-79
2021/01/03 09:19:55;;;;;;;13.10;3.80;;;5.50;99.90;;;;;;5013771;28;20183;-78
2021/01/03 09:22:39;;;;;;;2.80;2.60;;;5.60;99.90;;;;;;5013592;28;20200;-77
2021/01/03 09:25:17;;;;;;;2.83;2.63;;;5.60;99.90;;;;;;5014153;28;20211;-78
2021/01/03 09:27:43;;;;;;;11.98;3.42;;;5.70;99.90;;;;;;4995451;28;20179;-77
2021/01/03 09:30:32;;;;;;;1.02;1.02;;;5.80;99.90;;;;;;5013560;28;20169;-78
2021/01/03 09:33:09;;;;;;;8.13;4.53;;;5.90;99.90;;;;;;5013414;28;20164;-77
2021/01/03 09:35:53;;;;;;;6.72;3.13;;;5.90;99.90;;;;;;5013492;28;20192;-80
2021/01/03 09:38:40;;;;;;;7.18;4.72;;;5.70;99.90;;;;;;5013374;28;20168;-77
2021/01/03 09:41:33;;;;;;;2.67;2.53;;;5.80;99.90;;;;;;5013297;28;20204;-77
2021/01/03 09:44:20;;;;;;;13.63;4.93;;;5.80;99.90;;;;;;5013210;28;20230;-78
2021/01/03 09:47:06;;;;;;;4.32;2.92;;;6.00;99.90;;;;;;5013362;28;20172;-79
2021/01/03 09:49:51;;;;;;;4.18;3.58;;;6.00;99.90;;;;;;5013372;28;20212;-79
2021/01/03 09:52:30;;;;;;;4.72;4.35;;;6.10;99.90;;;;;;5013508;28;20164;-76
2021/01/03 09:55:02;;;;;;;6.40;2.10;;;6.20;99.90;;;;;;5013675;28;20196;-79
2021/01/03 09:58:07;;;;;;;1.92;1.83;;;6.00;99.90;;;;;;5013102;28;20515;-77
2021/01/03 10:00:44;;;;;;;8.05;4.75;;;5.80;99.90;;;;;;4991447;28;20205;-79
2021/01/03 10:03:23;;;;;;;28.13;4.75;;;5.60;99.90;;;;;;4991087;28;20687;-75
2021/01/03 10:05:50;;;;;;;8.25;2.85;;;5.50;99.90;;;;;;5005352;28;20303;-78
2021/01/03 10:08:23;;;;;;;8.10;7.25;;;5.50;99.90;;;;;;5013175;28;20156;-85
2021/01/03 10:10:53;;;;;;;11.15;2.80;;;5.50;99.90;;;;;;5012748;28;20636;-76
2021/01/03 10:13:22;;;;;;;10.40;6.25;;;5.50;99.90;;;;;;5012854;28;20160;-78
2021/01/03 10:15:50;;;;;;;12.88;6.93;;;5.50;99.90;;;;;;5012916;28;20624;-76
2021/01/03 10:18:37;;;;;;;12.82;5.70;;;5.60;99.90;;;;;;5012912;28;20600;-79
2021/01/03 10:21:28;;;;;;;8.88;5.57;;;5.60;99.90;;;;;;4995319;28;20204;-78
2021/01/03 10:24:23;;;;;;;1.48;1.48;;;5.80;99.90;;;;;;5012858;28;20179;-77
2021/01/03 10:27:12;;;;;;;4.00;3.38;;;5.90;99.90;;;;;;5012679;28;20177;-77
2021/01/03 10:29:38;;;;;;;4.38;3.97;;;5.80;99.90;;;;;;5012812;28;20165;-78
2021/01/03 10:32:04;;;;;;;10.10;4.65;;;5.90;99.90;;;;;;5012860;28;20214;-77
2021/01/03 10:34:29;;;;;;;30.15;3.17;;;5.80;99.90;;;;;;5012409;28;20187;-76
2021/01/03 10:36:57;;;;;;;6.00;2.58;;;5.90;99.90;;;;;;5012735;28;20961;-77
2021/01/03 10:39:23;;;;;;;27.83;6.00;;;6.00;99.90;;;;;;5014642;28;20152;-75
2021/01/03 10:41:50;;;;;;;2.42;2.33;;;6.20;99.90;;;;;;5023522;28;20204;-78
2021/01/03 10:44:16;;;;;;;7.43;3.78;;;6.00;99.90;;;;;;5035597;28;20200;-78
2021/01/03 10:46:42;;;;;;;1.45;1.45;;;6.00;99.90;;;;;;5027166;28;20164;-77
2021/01/03 10:49:09;;;;;;;17.88;3.58;;;6.10;99.90;;;;;;5017075;28;20268;-77
2021/01/03 10:51:38;;;;;;;5.05;3.80;;;6.10;99.90;;;;;;5016433;28;20636;-77
2021/01/03 10:54:09;;;;;;;4.53;3.47;;;6.00;99.90;;;;;;5016236;28;20608;-78
2021/01/03 10:56:35;;;;;;;5.20;4.15;;;6.00;99.90;;;;;;5016224;28;20161;-78
2021/01/03 10:59:01;;;;;;;11.00;4.47;;;6.10;99.90;;;;;;5016119;28;20509;-76
2021/01/03 11:01:27;;;;;;;3.22;2.92;;;6.10;99.90;;;;;;5016087;28;20283;-76
2021/01/03 11:03:53;;;;;;;4.60;4.20;;;6.10;99.90;;;;;;4998634;28;20652;-77
2021/01/03 11:06:19;;;;;;;4.70;4.30;;;6.10;99.90;;;;;;5015944;28;20161;-75
2021/01/03 11:08:45;;;;;;;5.50;4.43;;;6.00;99.90;;;;;;5016019;28;20195;-75
2021/01/03 11:11:17;;;;;;;10.02;6.18;;;6.00;99.90;;;;;;5016077;28;20176;-77
2021/01/03 11:13:42;;;;;;;5.60;2.78;;;6.00;99.90;;;;;;5016022;28;20719;-76
2021/01/03 11:16:08;;;;;;;6.68;1.30;;;6.10;99.90;;;;;;5015857;28;20336;-77
2021/01/03 11:18:34;;;;;;;0.82;0.82;;;6.10;99.90;;;;;;5015921;28;20621;-76
2021/01/03 11:20:59;;;;;;;4.68;3.05;;;6.20;99.90;;;;;;5015681;28;20205;-76
2021/01/03 11:23:25;;;;;;;8.50;3.00;;;6.30;99.90;;;;;;5015646;28;20176;-78
2021/01/03 11:25:51;;;;;;;3.95;3.65;;;6.10;99.90;;;;;;5015544;28;20180;-78
2021/01/03 11:28:16;;;;;;;7.35;4.05;;;6.20;99.90;;;;;;5015691;28;20620;-77
2021/01/03 11:30:42;;;;;;;10.70;3.50;;;6.10;99.90;;;;;;5015567;28;20165;-77
2021/01/03 11:33:08;;;;;;;13.35;3.90;;;6.00;99.90;;;;;;5015807;28;20160;-78
2021/01/03 11:35:44;;;;;;;1.17;0.77;;;6.10;99.90;;;;;;5015441;28;20246;-75
2021/01/03 11:38:09;;;;;;;3.20;2.88;;;6.20;99.90;;;;;;5015442;28;20172;-75
2021/01/03 11:40:35;;;;;;;3.53;1.60;;;6.10;99.90;;;;;;5015487;28;20283;-75
2021/01/03 11:43:00;;;;;;;4.22;2.67;;;6.10;99.90;;;;;;5015246;28;20171;-75
2021/01/03 11:45:26;;;;;;;5.80;4.00;;;5.80;99.90;;;;;;5015260;28;20704;-76
2021/01/03 11:47:51;;;;;;;4.57;3.72;;;5.80;99.90;;;;;;5015269;28;20644;-74
2021/01/03 11:50:20;;;;;;;1.80;1.55;;;6.00;99.90;;;;;;5014652;28;20248;-74
2021/01/03 11:52:46;;;;;;;6.18;1.85;;;6.00;99.90;;;;;;5015047;28;20172;-77
2021/01/03 11:55:16;;;;;;;5.60;3.70;;;6.20;99.90;;;;;;5014873;28;20185;-75
2021/01/03 11:57:43;;;;;;;4.90;2.67;;;6.30;99.90;;;;;;5015131;28;20173;-76
2021/01/03 12:00:14;;;;;;;4.13;2.92;;;6.10;99.90;;;;;;4997045;28;20648;-76
2021/01/03 12:02:41;;;;;;;5.72;1.98;;;5.90;99.90;;;;;;5014900;28;20168;-76
2021/01/03 12:05:07;;;;;;;5.30;2.78;;;5.80;99.90;;;;;;5014815;28;20200;-76
2021/01/03 12:07:33;;;;;;;7.57;2.15;;;5.70;99.90;;;;;;5015002;28;20165;-76
2021/01/03 12:09:59;;;;;;;6.97;2.88;;;5.80;99.90;;;;;;5014794;28;20647;-76
2021/01/03 12:12:24;;;;;;;3.85;2.97;;;5.80;99.90;;;;;;5014803;28;20161;-75
2021/01/03 12:14:50;;;;;;;1.67;1.52;;;5.60;99.90;;;;;;5014709;28;20199;-74
2021/01/03 12:17:19;;;;;;;11.07;2.58;;;5.50;99.90;;;;;;5014666;28;20270;-76
2021/01/03 12:19:46;;;;;;;0.95;0.95;;;5.60;99.90;;;;;;5014785;28;20198;-75
2021/01/03 12:22:12;;;;;;;1.60;1.55;;;5.60;99.90;;;;;;5014680;28;20196;-75
2021/01/03 12:24:38;;;;;;;1.13;1.13;;;5.80;99.90;;;;;;5014352;28;20543;-77
2021/01/03 12:27:04;;;;;;;4.78;2.65;;;5.80;99.90;;;;;;5014581;28;20252;-76
2021/01/03 12:29:30;;;;;;;1.77;1.67;;;5.70;99.90;;;;;;5014350;28;20211;-79
2021/01/03 12:31:59;;;;;;;1.38;1.27;;;5.80;99.90;;;;;;4996807;28;20355;-77
2021/01/03 12:34:27;;;;;;;1.70;1.63;;;5.70;99.90;;;;;;5014314;28;20272;-76
2021/01/03 12:37:07;;;;;;;1.73;1.63;;;5.80;99.90;;;;;;5014386;28;20179;-76
2021/01/03 12:39:33;;;;;;;5.28;1.98;;;6.00;99.90;;;;;;5014331;28;20156;-76
2021/01/03 12:42:00;;;;;;;3.75;1.88;;;6.00;99.90;;;;;;5012976;28;20198;-78
2021/01/03 12:44:26;;;;;;;1.30;1.20;;;5.80;99.90;;;;;;5014263;28;20425;-78
2021/01/03 12:46:52;;;;;;;1.33;1.23;;;5.90;99.90;;;;;;5014076;28;20686;-79
2021/01/03 12:49:18;;;;;;;11.55;1.40;;;5.70;99.90;;;;;;5002262;28;20217;-76
2021/01/03 12:51:44;;;;;;;2.78;1.20;;;5.70;99.90;;;;;;4992579;28;20177;-74
2021/01/03 12:54:10;;;;;;;3.00;2.85;;;5.60;99.90;;;;;;4992938;28;20169;-76
2021/01/03 12:56:36;;;;;;;15.73;3.97;;;5.60;99.90;;;;;;5007996;28;20168;-76
2021/01/03 12:59:03;;;;;;;1.02;1.02;;;5.60;99.90;;;;;;5010694;28;20164;-77
2021/01/03 13:01:34;;;;;;;0.80;0.80;;;5.60;99.90;;;;;;5011196;28;20207;-76
2021/01/03 13:04:05;;;;;;;1.88;1.77;;;5.70;99.90;;;;;;5010311;28;20630;-76
2021/01/03 13:06:32;;;;;;;1.08;1.08;;;5.70;99.90;;;;;;5012536;28;20297;-78
2021/01/03 13:08:58;;;;;;;0.55;0.55;;;5.80;99.90;;;;;;5011384;28;20259;-76
2021/01/03 13:11:24;;;;;;;0.90;0.90;;;6.00;99.90;;;;;;5012868;28;20657;-76
2021/01/03 13:13:50;;;;;;;2.35;1.10;;;6.00;99.90;;;;;;5014000;28;20175;-77
2021/01/03 13:16:15;;;;;;;6.05;1.40;;;6.00;99.90;;;;;;5011972;28;20211;-75
2021/01/03 13:18:41;;;;;;;1.50;1.40;;;6.10;99.90;;;;;;5019846;28;20205;-79
2021/01/03 13:21:07;;;;;;;1.15;1.15;;;6.10;99.90;;;;;;5017644;28;20212;-80